Stanley, ND

9:22 AM CST on January 20, 2018 (GMT -0600)
Stanley

Weather History for K08D - January, 2013

Change the Weather History Date:

Wednesday, January 30, 2013

  Actual Average (KMIB) Record (KMIB)
Temperature  
Mean Temperature -12 °F -  
Max Temperature -7 °F 19 °F 44 °F (2012)
Min Temperature -16 °F 2 °F -31 °F (2008)
Degree Days  
Heating Degree Days 76    
Moisture  
Dew Point -20 °F    
Average Humidity 74    
Maximum Humidity 84    
Minimum Humidity 64    
Precipitation  
Precipitation 0.04 in - - ()
Sea Level Pressure  
Sea Level Pressure 29.95 in    
Wind  
Wind Speed 15 mph (NW)    
Max Wind Speed 23 mph    
Max Gust Speed 32 mph    
Visibility 9 miles    
Events Rain , Snow    
Averages and records for this station are not official NWS values.
T = Trace of Precipitation, MM = Missing Value Source: NWS Daily Summary

Daily Weather History Graph

Daily Weather History Graph

Search for Another Location

Airport or City:

Trip Planner

Search our weather history database for the weather conditions in past years. The results will help you decide how hot, cold, wet, or windy it might be!

Date:

Astronomy

Jan. 30, 2013 Rise Set
Actual Time 8:20 AM CST 5:46 PM CST
Civil Twilight 7:46 AM CST 6:19 PM CST
Nautical Twilight 7:09 AM CST 6:57 PM CST
Astronomical Twilight 6:32 AM CST 7:34 PM CST
Moon 10:11 PM CST (1/30) 9:27 AM CST (1/30)
Length of Visible Light 10h 33m
Length of Day
9h 25m
Waning Gibbous, 87% of the Moon is Illuminated
Jan 30
Waning Gibbous
Feb 3
Last Quarter
Feb 10
New
Feb 17
First Quarter
Feb 25
Full

Hourly Weather History & Observations

Time (CST) Temp. Windchill Dew Point Humidity Pressure Visibility Wind Dir Wind Speed Gust Speed Precip Events Conditions
12:15 AM -7.6 °F -33.4 °F -11.2 °F 84% 30.04 in 3.0 mi NW 23.0 mph 32.2 mph N/A Rain Light Freezing Rain
12:35 AM -7.6 °F -31.7 °F -11.2 °F 84% 30.05 in 7.0 mi NW 19.6 mph 28.8 mph N/A Rain Light Freezing Rain
12:55 AM -7.6 °F -31.1 °F - N/A% 30.05 in 7.0 mi WNW 18.4 mph 28.8 mph N/A Rain Light Freezing Rain
1:15 AM -9.4 °F -35.2 °F -13.0 °F 84% 30.05 in 3.0 mi NW 21.9 mph 31.1 mph N/A Rain Light Freezing Rain
1:35 AM -9.4 °F -33.5 °F -13.0 °F 84% 30.04 in 10.0 mi WNW 18.4 mph 24.2 mph N/A   Overcast
1:55 AM -9.4 °F -32.8 °F -14.8 °F 77% 30.04 in 10.0 mi NW 17.3 mph 25.3 mph N/A   Overcast
2:15 AM -11.2 °F -35.2 °F -16.6 °F 77% 30.03 in 10.0 mi NW 17.3 mph - N/A   Mostly Cloudy
2:35 AM -11.2 °F -32.1 °F -16.6 °F 77% 30.02 in 10.0 mi NNW 12.7 mph 23.0 mph N/A   Mostly Cloudy
2:55 AM -11.2 °F -31.1 °F -16.6 °F 77% 30.01 in 10.0 mi NW 11.5 mph 19.6 mph N/A   Overcast
3:15 AM -11.2 °F -31.1 °F -18.4 °F 70% 30.01 in 10.0 mi NW 11.5 mph 19.6 mph N/A   Overcast
3:35 AM -11.2 °F -35.2 °F -16.6 °F 77% 30.00 in 10.0 mi NW 17.3 mph 21.9 mph N/A   Overcast
3:55 AM -9.4 °F -28.9 °F -16.6 °F 71% 29.99 in 10.0 mi WNW 11.5 mph - N/A Snow Light Snow
4:15 AM -9.4 °F -28.9 °F -16.6 °F 71% 29.97 in 10.0 mi WNW 11.5 mph - N/A Snow Light Snow
4:35 AM -9.4 °F -27.9 °F -16.6 °F 71% 29.97 in 10.0 mi WNW 10.4 mph 18.4 mph 0.01 in Snow Light Snow
4:55 AM -11.2 °F -30.1 °F -18.4 °F 70% 29.97 in 10.0 mi NW 10.4 mph - 0.01 in Rain Light Freezing Rain
5:15 AM -11.2 °F -30.1 °F -18.4 °F 70% 29.96 in 10.0 mi NW 10.4 mph - N/A   Overcast
5:35 AM -11.2 °F -32.1 °F -18.4 °F 70% 29.96 in 10.0 mi NW 12.7 mph 16.1 mph N/A   Overcast
5:55 AM - - - N/A% 29.95 in 10.0 mi NW 9.2 mph - N/A   Overcast
6:15 AM -13.0 °F -35.2 °F -18.4 °F 77% 29.95 in 10.0 mi WNW 13.8 mph - N/A   Partly Cloudy
6:35 AM -13.0 °F -32.4 °F -18.4 °F 77% 29.95 in 10.0 mi NW 10.4 mph - N/A   Partly Cloudy
6:55 AM -13.0 °F -35.2 °F -20.2 °F 70% 29.94 in 10.0 mi NW 13.8 mph - N/A   Mostly Cloudy
7:15 AM -14.8 °F -30.8 °F -20.2 °F 77% 29.95 in 10.0 mi NW 6.9 mph - N/A   Partly Cloudy
7:35 AM -16.6 °F -36.8 °F -20.2 °F 84% 29.94 in 10.0 mi NW 10.4 mph - N/A   Clear
7:55 AM -16.6 °F -36.8 °F -22.0 °F 76% 29.94 in 10.0 mi WNW 10.4 mph 16.1 mph N/A   Clear
8:15 AM -16.6 °F -37.9 °F -22.0 °F 76% 29.93 in 10.0 mi NW 11.5 mph - N/A   Clear
8:35 AM -16.6 °F -35.7 °F -22.0 °F 76% 29.93 in 10.0 mi NW 9.2 mph - N/A   Clear
8:55 AM -16.6 °F -36.8 °F -22.0 °F 76% 29.93 in 10.0 mi NW 10.4 mph - N/A   Clear
9:15 AM -16.6 °F -36.8 °F -22.0 °F 76% 29.93 in 10.0 mi WNW 10.4 mph - N/A   Clear
9:35 AM -16.6 °F -32.9 °F -22.0 °F 76% 29.93 in 10.0 mi NW 6.9 mph - N/A   Clear
9:55 AM -16.6 °F -34.4 °F -22.0 °F 76% 29.93 in 10.0 mi NW 8.1 mph - N/A   Clear
10:15 AM -16.6 °F -35.7 °F -22.0 °F 76% 29.93 in 10.0 mi NW 9.2 mph - N/A   Partly Cloudy
10:35 AM -16.6 °F -40.6 °F -22.0 °F 76% 29.93 in 10.0 mi NW 15.0 mph - N/A   Mostly Cloudy
10:55 AM -14.8 °F -37.5 °F -22.0 °F 70% 29.92 in 10.0 mi NW 13.8 mph - N/A   Mostly Cloudy
11:15 AM -14.8 °F -37.5 °F -22.0 °F 70% 29.92 in 10.0 mi NW 13.8 mph - N/A   Scattered Clouds
11:35 AM -14.8 °F -37.5 °F -22.0 °F 70% 29.93 in 10.0 mi NW 13.8 mph - N/A   Partly Cloudy
11:55 AM -13.0 °F -35.2 °F -20.2 °F 70% 29.92 in 10.0 mi NNW 13.8 mph 19.6 mph N/A   Clear
12:15 PM -13.0 °F -33.4 °F -20.2 °F 70% 29.92 in 10.0 mi NNW 11.5 mph 17.3 mph N/A   Clear
12:35 PM -13.0 °F -33.4 °F -20.2 °F 70% 29.92 in 10.0 mi NW 11.5 mph - N/A   Clear
12:55 PM -13.0 °F -34.3 °F -20.2 °F 70% 29.91 in 10.0 mi NW 12.7 mph 17.3 mph N/A   Clear
1:15 PM - - - N/A% 29.89 in 10.0 mi NNW 15.0 mph - N/A   Clear
1:35 PM - - - N/A% 29.89 in 10.0 mi NNW 12.7 mph - N/A   Clear
1:55 PM -11.2 °F -34.4 °F -20.2 °F 64% 29.89 in 10.0 mi NW 16.1 mph 19.6 mph N/A   Clear
2:15 PM -11.2 °F -30.1 °F -18.4 °F 70% 29.88 in 10.0 mi NW 10.4 mph - N/A   Clear
2:35 PM -11.2 °F -33.7 °F -18.4 °F 70% 29.88 in 10.0 mi NW 15.0 mph - N/A   Clear
2:55 PM -11.2 °F -32.1 °F -18.4 °F 70% 29.88 in 10.0 mi NW 12.7 mph - N/A   Clear
3:15 PM -11.2 °F -32.1 °F -18.4 °F 70% 29.88 in 10.0 mi NW 12.7 mph 19.6 mph N/A   Clear
3:35 PM -11.2 °F -32.9 °F -18.4 °F 70% 29.89 in 10.0 mi NW 13.8 mph - N/A   Clear
3:55 PM -11.2 °F -31.1 °F -20.2 °F 64% 29.88 in 10.0 mi NW 11.5 mph 18.4 mph N/A   Clear
4:15 PM - - - N/A% 29.89 in 10.0 mi NW 12.7 mph - N/A   Clear
4:35 PM -13.0 °F -35.2 °F -20.2 °F 70% 29.89 in 10.0 mi NW 13.8 mph 19.6 mph N/A   Clear
4:55 PM -13.0 °F -33.4 °F -20.2 °F 70% 29.90 in 10.0 mi NW 11.5 mph 18.4 mph N/A   Partly Cloudy
5:15 PM -13.0 °F -34.3 °F -20.2 °F 70% 29.90 in 10.0 mi NW 12.7 mph 18.4 mph N/A   Clear
5:35 PM -13.0 °F -33.4 °F -20.2 °F 70% 29.90 in 10.0 mi NW 11.5 mph - N/A   Clear
5:55 PM -13.0 °F -35.2 °F -20.2 °F 70% 29.90 in 10.0 mi NW 13.8 mph 19.6 mph N/A   Partly Cloudy
6:15 PM -13.0 °F -36.8 °F -20.2 °F 70% 29.91 in 10.0 mi NNW 16.1 mph 19.6 mph N/A   Mostly Cloudy
6:35 PM -14.8 °F -36.6 °F -20.2 °F 77% 29.92 in 10.0 mi NW 12.7 mph 19.6 mph N/A   Overcast
6:55 PM -14.8 °F -36.6 °F -22.0 °F 70% 29.93 in 10.0 mi NW 12.7 mph - N/A   Overcast
7:15 PM -14.8 °F -36.6 °F -22.0 °F 70% 29.93 in 10.0 mi NNW 12.7 mph 18.4 mph N/A   Overcast
7:35 PM -14.8 °F -33.5 °F -22.0 °F 70% 29.93 in 10.0 mi NNW 9.2 mph - N/A   Overcast
7:55 PM -14.8 °F -34.6 °F -20.2 °F 77% 29.93 in 10.0 mi NW 10.4 mph - N/A   Overcast
8:15 PM -13.0 °F -31.3 °F -20.2 °F 70% 29.94 in 10.0 mi NNW 9.2 mph 18.4 mph N/A Snow Light Snow
8:35 PM -13.0 °F -35.2 °F -20.2 °F 70% 29.94 in 9.0 mi NNW 13.8 mph 19.6 mph 0.01 in Snow Light Snow
8:55 PM -14.8 °F -36.6 °F -20.2 °F 77% 29.94 in 10.0 mi NNW 12.7 mph 18.4 mph 0.02 in Snow Light Snow
9:15 PM -14.8 °F -34.6 °F -20.2 °F 77% 29.95 in 10.0 mi NW 10.4 mph - N/A Snow Light Snow
9:35 PM -14.8 °F -38.3 °F -20.2 °F 77% 29.95 in 10.0 mi NNW 15.0 mph 20.7 mph N/A Rain Light Freezing Rain
9:55 PM -14.8 °F -37.5 °F -20.2 °F 77% 29.95 in 10.0 mi NNW 13.8 mph 20.7 mph N/A Snow Light Snow
10:15 PM -14.8 °F -41.2 °F -22.0 °F 70% 29.97 in 9.0 mi NW 19.6 mph 25.3 mph N/A Rain Light Freezing Rain
10:35 PM -16.6 °F -40.6 °F -22.0 °F 76% 29.97 in 5.0 mi NNW 15.0 mph 23.0 mph N/A Snow Light Snow
10:55 PM -16.6 °F -42.9 °F -22.0 °F 76% 29.98 in 3.0 mi NNW 18.4 mph 23.0 mph 0.01 in Rain Light Freezing Rain
11:15 PM -16.6 °F -41.4 °F -22.0 °F 76% 29.98 in 2.5 mi NW 16.1 mph 27.6 mph N/A Rain Light Freezing Rain
11:35 PM -16.6 °F -41.4 °F -22.0 °F 76% 29.99 in 3.0 mi NW 16.1 mph 23.0 mph N/A Rain Light Freezing Rain
11:55 PM -16.6 °F -42.9 °F -22.0 °F 76% 30.00 in 2.5 mi NW 18.4 mph 25.3 mph N/A Rain Light Freezing Rain